createdAt,value
2018-04-07T00:00:08.329Z,93635.64
2018-04-07T00:02:34.678Z,93637.27
2018-04-07T00:05:01.113Z,93630.48
2018-04-07T00:07:27.449Z,93639.13
2018-04-07T00:09:53.880Z,93641.25
2018-04-07T00:12:20.358Z,93641.03
2018-04-07T00:14:46.715Z,93642.87
2018-04-07T00:17:13.162Z,93642.45
2018-04-07T00:19:39.510Z,93638.36
2018-04-07T00:22:05.955Z,93636.73
2018-04-07T00:24:32.354Z,93626.77
2018-04-07T00:26:58.715Z,93632.91
2018-04-07T00:29:25.118Z,93630.95
2018-04-07T00:31:51.591Z,93628.07
2018-04-07T00:34:17.900Z,93632.92
2018-04-07T00:36:44.214Z,93621.02
2018-04-07T00:39:10.619Z,93623.11
2018-04-07T00:41:36.958Z,93630.41
2018-04-07T00:44:03.367Z,93632.52
2018-04-07T00:46:29.791Z,93630.25
2018-04-07T00:48:56.149Z,93630.73
2018-04-07T00:51:22.588Z,93633.12
2018-04-07T00:53:48.952Z,93637.47
2018-04-07T00:56:15.278Z,93627.31
2018-04-07T00:58:41.809Z,93632.09
2018-04-07T01:01:08.313Z,93641.25
2018-04-07T01:03:34.746Z,93641.50
2018-04-07T01:06:01.161Z,93641.50
2018-04-07T01:08:27.611Z,93643.27
2018-04-07T01:10:54.005Z,93642.04
2018-04-07T01:13:20.403Z,93649.12
2018-04-07T01:15:46.914Z,93646.75
2018-04-07T01:18:13.245Z,93652.39
2018-04-07T01:20:39.636Z,93659.89
2018-04-07T01:23:06.082Z,93654.86
2018-04-07T01:25:32.407Z,93650.47
2018-04-07T01:27:58.736Z,93657.25
2018-04-07T01:30:25.217Z,93659.08
2018-04-07T01:32:51.566Z,93656.22
2018-04-07T01:35:17.944Z,93662.88
2018-04-07T01:37:44.307Z,93666.31
2018-04-07T01:40:10.726Z,93663.23
2018-04-07T01:42:37.204Z,93667.89
2018-04-07T01:45:03.665Z,93672.78
2018-04-07T01:47:30.058Z,93672.17
2018-04-07T01:49:56.503Z,93662.42
2018-04-07T01:52:22.971Z,93665.89
2018-04-07T01:54:49.326Z,93661.38
2018-04-07T01:57:15.714Z,93665.34
2018-04-07T01:59:42.485Z,93669.98
2018-04-07T02:02:08.938Z,93671.20
2018-04-07T02:04:35.269Z,93666.14
2018-04-07T02:07:01.689Z,93667.09
2018-04-07T02:09:28.142Z,93672.09
2018-04-07T02:11:54.590Z,93664.58
2018-04-07T02:14:21.128Z,93671.20
2018-04-07T02:16:47.512Z,93666.22
2018-04-07T02:19:13.879Z,93669.58
2018-04-07T02:21:40.417Z,93672.17
2018-04-07T02:24:06.749Z,93674.00
2018-04-07T02:26:33.134Z,93679.09
2018-04-07T02:28:59.488Z,93669.56
2018-04-07T02:31:25.874Z,93671.63
2018-04-07T02:33:52.366Z,93680.69
2018-04-07T02:36:18.742Z,93685.16
2018-04-07T02:38:45.058Z,93688.85
2018-04-07T02:41:11.482Z,93689.20
2018-04-07T02:43:37.822Z,93681.16
2018-04-07T02:46:04.157Z,93683.55
2018-04-07T02:48:30.476Z,93680.06
2018-04-07T02:50:56.910Z,93679.09
2018-04-07T02:53:23.255Z,93682.67
2018-04-07T02:55:49.684Z,93674.33
2018-04-07T02:58:16.103Z,93684.34
2018-04-07T03:00:42.525Z,93690.87
2018-04-07T03:03:08.917Z,93688.23
2018-04-07T03:05:35.431Z,93676.59
2018-04-07T03:08:01.799Z,93669.29
2018-04-07T03:10:28.173Z,93676.38
2018-04-07T03:12:54.690Z,93688.78
2018-04-07T03:15:21.034Z,93691.70
2018-04-07T03:17:47.479Z,93695.23
2018-04-07T03:20:13.962Z,93697.64
2018-04-07T03:22:40.443Z,93700.11
2018-04-07T03:25:06.783Z,93701.84
2018-04-07T03:27:33.249Z,93703.89
2018-04-07T03:29:59.621Z,93708.75
2018-04-07T03:32:26.010Z,93708.22
2018-04-07T03:34:53.040Z,93712.22
2018-04-07T03:37:19.560Z,93711.62
2018-04-07T03:39:46.182Z,93711.42
2018-04-07T03:42:12.947Z,93717.02
2018-04-07T03:44:39.468Z,93716.67
2018-04-07T03:47:05.879Z,93721.55
2018-04-07T03:49:32.435Z,93720.19
2018-04-07T03:51:58.886Z,93717.28
2018-04-07T03:54:25.389Z,93726.27
2018-04-07T03:56:51.926Z,93724.95
2018-04-07T03:59:18.251Z,93725.20
2018-04-07T04:01:44.894Z,93723.17
2018-04-07T04:04:11.307Z,93725.86
2018-04-07T04:06:37.641Z,93733.50
2018-04-07T04:09:04.157Z,93736.22
2018-04-07T04:11:30.839Z,93745.98
2018-04-07T04:13:57.649Z,93744.40
2018-04-07T04:16:24.397Z,93750.05
2018-04-07T04:18:50.787Z,93758.59
2018-04-07T04:21:17.196Z,93757.91
2018-04-07T04:23:43.596Z,93757.50
2018-04-07T04:26:10.002Z,93760.70
2018-04-07T04:28:36.399Z,93755.27
2018-04-07T04:31:02.840Z,93758.57
2018-04-07T04:33:29.251Z,93762.92
2018-04-07T04:35:55.989Z,93765.39
2018-04-07T04:38:22.582Z,93770.84
2018-04-07T04:40:49.317Z,93766.48
2018-04-07T04:43:16.097Z,93772.94
2018-04-07T04:45:42.516Z,93784.33
2018-04-07T04:48:08.908Z,93780.03
2018-04-07T04:50:35.270Z,93788.60
2018-04-07T04:53:01.706Z,93791.95
2018-04-07T04:55:28.151Z,93794.89
2018-04-07T04:57:54.487Z,93794.70
2018-04-07T05:00:20.988Z,93795.67
2018-04-07T05:02:47.532Z,93793.62
2018-04-07T05:05:14.033Z,93792.68
2018-04-07T05:07:40.373Z,93789.89
2018-04-07T05:10:06.781Z,93785.31
2018-04-07T05:12:33.306Z,93783.08
2018-04-07T05:14:59.953Z,93787.47
2018-04-07T05:17:26.728Z,93786.41
2018-04-07T05:19:53.265Z,93781.16
2018-04-07T05:22:19.908Z,93784.01
2018-04-07T05:24:46.531Z,93786.49
2018-04-07T05:27:13.222Z,93787.92
2018-04-07T05:29:39.757Z,93786.12
2018-04-07T05:32:06.256Z,93787.07
2018-04-07T05:34:32.613Z,93781.66
2018-04-07T05:36:59.020Z,93789.50
2018-04-07T05:39:25.837Z,93796.84
2018-04-07T05:41:52.379Z,93796.03
2018-04-07T05:44:18.849Z,93795.81
2018-04-07T05:46:45.489Z,93796.58
2018-04-07T05:49:12.323Z,93800.11
2018-04-07T05:51:38.892Z,93797.35
2018-04-07T05:54:05.443Z,93798.90
2018-04-07T05:56:32.514Z,93802.22
2018-04-07T05:58:59.069Z,93805.56
2018-04-07T06:01:25.552Z,93808.71
2018-04-07T06:03:52.141Z,93817.36
2018-04-07T06:06:19.291Z,93812.80
2018-04-07T06:08:46.491Z,93813.75
2018-04-07T06:11:13.056Z,93815.33
2018-04-07T06:13:39.580Z,93810.06
2018-04-07T06:16:06.838Z,93808.44
2018-04-07T06:18:33.534Z,93812.28
2018-04-07T06:21:00.823Z,93814.00
2018-04-07T06:23:27.645Z,93819.77
2018-04-07T06:25:55.040Z,93821.66
2018-04-07T06:28:21.527Z,93814.70
2018-04-07T06:30:47.937Z,93819.08
2018-04-07T06:33:14.415Z,93826.04
2018-04-07T06:35:40.947Z,93820.33
2018-04-07T06:38:07.483Z,93825.41
2018-04-07T06:40:33.886Z,93833.14
2018-04-07T06:43:00.429Z,93841.06
2018-04-07T06:45:27.213Z,93846.48
2018-04-07T06:47:53.811Z,93843.97
2018-04-07T06:50:20.433Z,93845.83
2018-04-07T06:52:47.157Z,93846.56
2018-04-07T06:55:13.974Z,93845.33
2018-04-07T06:57:40.394Z,93848.55
2018-04-07T07:00:06.771Z,93850.41
2018-04-07T07:02:33.177Z,93847.17
2018-04-07T07:04:59.782Z,93847.08
2018-04-07T07:07:26.226Z,93848.33
2018-04-07T07:09:52.766Z,93855.71
2018-04-07T07:12:19.233Z,93855.08
2018-04-07T07:14:45.641Z,93854.59
2018-04-07T07:17:12.211Z,93857.41
2018-04-07T07:19:39.152Z,93858.05
2018-04-07T07:22:06.050Z,93858.17
2018-04-07T07:24:32.486Z,93862.44
2018-04-07T07:26:58.965Z,93864.28
2018-04-07T07:29:25.478Z,93864.59
2018-04-07T07:31:51.983Z,93864.78
2018-04-07T07:34:20.468Z,93868.36
2018-04-07T07:36:47.634Z,93869.14
2018-04-07T07:39:15.207Z,93872.56
2018-04-07T07:41:42.502Z,93871.67
2018-04-07T07:44:09.835Z,93874.53
2018-04-07T07:46:36.748Z,93876.73
2018-04-07T07:49:03.239Z,93873.70
2018-04-07T07:51:29.690Z,93876.95
2018-04-07T07:53:57.102Z,93878.22
2018-04-07T07:56:23.632Z,93873.25
2018-04-07T07:58:50.274Z,93875.61
2018-04-07T08:01:16.955Z,93874.66
2018-04-07T08:03:43.380Z,93876.62
2018-04-07T08:06:09.833Z,93879.36
2018-04-07T08:08:36.370Z,93872.12
2018-04-07T08:11:03.320Z,93880.13
2018-04-07T08:13:29.920Z,93879.10
2018-04-07T08:15:56.688Z,93879.08
2018-04-07T08:18:23.213Z,93874.53
2018-04-07T08:20:50.003Z,93869.12
2018-04-07T08:23:16.753Z,93872.75
2018-04-07T08:25:43.436Z,93873.59
2018-04-07T08:28:09.985Z,93872.25
2018-04-07T08:30:36.927Z,93875.55
2018-04-07T08:33:03.537Z,93881.59
2018-04-07T08:35:30.102Z,93877.95
2018-04-07T08:37:56.583Z,93873.16
2018-04-07T08:40:30.280Z,93884.34
2018-04-07T08:43:03.624Z,93879.30
2018-04-07T08:45:31.036Z,93883.48
2018-04-07T08:47:57.673Z,93882.48
2018-04-07T08:50:25.588Z,93883.17
2018-04-07T08:52:53.007Z,93890.52
2018-04-07T08:55:20.466Z,93887.52
2018-04-07T08:57:49.454Z,93885.47
2018-04-07T09:00:16.301Z,93886.25
2018-04-07T09:02:43.151Z,93892.26
2018-04-07T09:05:10.733Z,93888.61
2018-04-07T09:07:37.671Z,93885.86
2018-04-07T09:10:04.347Z,93888.73
2018-04-07T09:12:31.231Z,93890.13
2018-04-07T09:14:57.817Z,93888.17
2018-04-07T09:17:24.463Z,93887.33
2018-04-07T09:19:51.134Z,93893.80
2018-04-07T09:22:17.728Z,93895.87
2018-04-07T09:24:44.641Z,93898.95
2018-04-07T09:27:12.418Z,93898.02
2018-04-07T09:29:38.905Z,93898.59
2018-04-07T09:32:05.840Z,93904.17
2018-04-07T09:34:33.164Z,93908.33
2018-04-07T09:36:59.679Z,93907.27
2018-04-07T09:39:26.425Z,93907.84
2018-04-07T09:41:53.342Z,93901.98
2018-04-07T09:44:20.187Z,93897.20
2018-04-07T09:46:46.834Z,93900.61
2018-04-07T09:49:13.811Z,93903.25
2018-04-07T09:51:41.338Z,93906.97
2018-04-07T09:54:08.011Z,93899.64
2018-04-07T09:56:34.944Z,93893.59
2018-04-07T09:59:01.745Z,93894.25
2018-04-07T10:01:29.271Z,93891.59
2018-04-07T10:03:56.273Z,93900.45
2018-04-07T10:06:24.304Z,93900.57
2018-04-07T10:08:50.870Z,93891.04
2018-04-07T10:11:18.750Z,93889.28
2018-04-07T10:13:45.763Z,93880.59
2018-04-07T10:16:12.773Z,93884.73
2018-04-07T10:18:39.503Z,93889.13
2018-04-07T10:21:06.193Z,93880.01
2018-04-07T10:23:33.138Z,93879.41
2018-04-07T10:26:00.324Z,93882.87
2018-04-07T10:28:27.070Z,93881.55
2018-04-07T10:30:53.503Z,93891.45
2018-04-07T10:33:20.646Z,93884.19
2018-04-07T10:35:47.201Z,93883.55
2018-04-07T10:38:14.036Z,93873.64
2018-04-07T10:40:41.393Z,93869.91
2018-04-07T10:43:11.134Z,93869.77
2018-04-07T10:45:39.451Z,93874.51
2018-04-07T10:48:06.544Z,93872.92
2018-04-07T10:50:36.441Z,93862.19
2018-04-07T10:53:03.226Z,93864.45
2018-04-07T10:55:30.393Z,93860.88
2018-04-07T10:57:57.032Z,93859.47
2018-04-07T11:00:25.775Z,93858.66
2018-04-07T11:02:53.739Z,93865.89
2018-04-07T11:05:20.394Z,93854.84
2018-04-07T11:07:47.215Z,93851.41
2018-04-07T11:10:13.796Z,93863.66
2018-04-07T11:12:40.369Z,93863.63
2018-04-07T11:15:06.818Z,93860.59
2018-04-07T11:17:34.353Z,93866.05
2018-04-07T11:20:00.779Z,93856.55
2018-04-07T11:22:27.237Z,93859.97
2018-04-07T11:24:53.745Z,93864.45
2018-04-07T11:27:21.143Z,93863.59
2018-04-07T11:29:49.627Z,93863.62
2018-04-07T11:32:16.318Z,93859.09
2018-04-07T11:34:43.018Z,93854.19
2018-04-07T11:37:10.070Z,93857.03
2018-04-07T11:39:38.127Z,93854.00
2018-04-07T11:42:04.634Z,93855.13
2018-04-07T11:44:31.304Z,93858.58
2018-04-07T11:46:58.445Z,93855.51
2018-04-07T11:49:25.572Z,93855.63
2018-04-07T11:51:52.246Z,93857.75
2018-04-07T11:54:18.886Z,93855.73
2018-04-07T11:56:47.427Z,93855.07
2018-04-07T11:59:14.685Z,93851.88
2018-04-07T12:01:41.886Z,93855.46
2018-04-07T12:04:10.182Z,93852.00
2018-04-07T12:06:37.712Z,93851.95
2018-04-07T12:09:05.364Z,93855.77
2018-04-07T12:11:32.010Z,93845.38
2018-04-07T12:13:58.681Z,93847.17
2018-04-07T12:16:26.183Z,93843.44
2018-04-07T12:18:52.738Z,93842.73
2018-04-07T12:21:19.910Z,93841.02
2018-04-07T12:23:46.845Z,93844.61
2018-04-07T12:26:14.065Z,93842.00
2018-04-07T12:28:42.204Z,93833.99
2018-04-07T12:31:09.018Z,93832.30
2018-04-07T12:33:35.630Z,93829.25
2018-04-07T12:36:02.695Z,93833.97
2018-04-07T12:38:29.258Z,93825.69
2018-04-07T12:40:55.879Z,93822.65
2018-04-07T12:43:23.029Z,93824.63
2018-04-07T12:45:50.937Z,93818.22
2018-04-07T12:48:18.248Z,93813.32
2018-04-07T12:50:45.638Z,93810.05
2018-04-07T12:53:13.711Z,93812.49
2018-04-07T12:55:40.259Z,93816.67
2018-04-07T12:58:07.254Z,93811.80
2018-04-07T13:00:35.117Z,93806.06
2018-04-07T13:03:03.480Z,93801.81
2018-04-07T13:05:30.652Z,93806.51
2018-04-07T13:07:57.643Z,93801.80
2018-04-07T13:10:24.760Z,93804.08
2018-04-07T13:12:51.245Z,93807.91
2018-04-07T13:15:17.940Z,93806.41
2018-04-07T13:17:45.885Z,93800.80
2018-04-07T13:20:13.148Z,93797.63
2018-04-07T13:22:40.451Z,93794.58
2018-04-07T13:25:07.749Z,93793.89
2018-04-07T13:27:34.459Z,93798.13
2018-04-07T13:30:00.978Z,93798.44
2018-04-07T13:32:27.823Z,93788.45
2018-04-07T13:34:55.471Z,93792.86
2018-04-07T13:37:23.179Z,93794.85
2018-04-07T13:39:52.159Z,93791.73
2018-04-07T13:42:19.910Z,93787.24
2018-04-07T13:44:46.589Z,93789.51
2018-04-07T13:47:13.583Z,93787.81
2018-04-07T13:49:40.313Z,93794.72
2018-04-07T13:52:07.199Z,93791.31
2018-04-07T13:54:33.971Z,93792.63
2018-04-07T13:57:01.111Z,93786.28
2018-04-07T13:59:28.038Z,93788.83
2018-04-07T14:01:54.808Z,93790.47
2018-04-07T14:04:21.731Z,93792.36
2018-04-07T14:06:48.386Z,93778.29
2018-04-07T14:09:15.882Z,93783.70
2018-04-07T14:11:43.320Z,93781.82
2018-04-07T14:14:10.060Z,93781.20
2018-04-07T14:16:36.675Z,93787.78
2018-04-07T14:19:03.940Z,93790.92
2018-04-07T14:21:31.027Z,93794.20
2018-04-07T14:23:58.429Z,93788.80
2018-04-07T14:26:25.357Z,93789.50
2018-04-07T14:28:52.008Z,93787.06
2018-04-07T14:31:19.448Z,93794.13
2018-04-07T14:33:46.201Z,93790.45
2018-04-07T14:36:13.113Z,93797.48
2018-04-07T14:38:39.753Z,93794.85
2018-04-07T14:41:07.055Z,93802.53
2018-04-07T14:43:33.921Z,93815.42
2018-04-07T14:46:01.156Z,93810.31
2018-04-07T14:48:28.456Z,93812.18
2018-04-07T14:50:55.156Z,93818.80
2018-04-07T14:53:22.390Z,93816.00
2018-04-07T14:55:49.435Z,93818.14
2018-04-07T14:58:15.947Z,93815.34
2018-04-07T15:00:42.387Z,93814.63
2018-04-07T15:03:09.343Z,93817.19
2018-04-07T15:05:36.258Z,93814.97
2018-04-07T15:08:03.043Z,93821.19
2018-04-07T15:10:34.237Z,93826.67
2018-04-07T15:13:01.930Z,93821.84
2018-04-07T15:15:28.595Z,93823.34
2018-04-07T15:17:56.507Z,93824.16
2018-04-07T15:20:24.012Z,93820.20
2018-04-07T15:22:53.227Z,93816.68
2018-04-07T15:25:19.852Z,93817.47
2018-04-07T15:27:47.346Z,93821.51
2018-04-07T15:30:17.527Z,93823.75
2018-04-07T15:32:44.816Z,93818.40
2018-04-07T15:35:12.231Z,93823.59
2018-04-07T15:37:38.944Z,93822.57
2018-04-07T15:40:05.851Z,93821.42
2018-04-07T15:42:35.347Z,93826.78
2018-04-07T15:45:04.120Z,93823.48
2018-04-07T15:47:31.094Z,93824.16
2018-04-07T15:49:58.156Z,93828.67
2018-04-07T15:52:25.138Z,93827.70
2018-04-07T15:54:54.369Z,93839.01
2018-04-07T15:57:24.293Z,93826.64
2018-04-07T15:59:53.215Z,93827.94
2018-04-07T16:02:24.188Z,93832.15
2018-04-07T16:04:51.418Z,93833.47
2018-04-07T16:07:19.351Z,93835.05
2018-04-07T16:09:46.341Z,93845.81
2018-04-07T16:12:14.087Z,93836.05
2018-04-07T16:14:42.597Z,93840.72
2018-04-07T16:17:12.748Z,93839.80
2018-04-07T16:19:54.148Z,93847.91
2018-04-07T16:22:22.186Z,93841.81
2018-04-07T16:24:50.682Z,93845.73
2018-04-07T16:27:18.267Z,93853.24
2018-04-07T16:29:44.998Z,93850.73
2018-04-07T16:32:11.812Z,93852.72
2018-04-07T16:34:38.500Z,93859.23
2018-04-07T16:37:05.551Z,93864.52
2018-04-07T16:39:33.052Z,93867.25
2018-04-07T16:42:00.729Z,93865.45
2018-04-07T16:44:29.156Z,93866.88
2018-04-07T16:46:57.029Z,93869.75
2018-04-07T16:49:24.887Z,93871.19
2018-04-07T16:51:51.467Z,93874.59
2018-04-07T16:54:18.532Z,93876.09
2018-04-07T16:56:45.642Z,93880.22
2018-04-07T16:59:12.291Z,93879.84
2018-04-07T17:01:39.134Z,93879.48
2018-04-07T17:04:11.429Z,93884.16
2018-04-07T17:06:38.913Z,93888.34
2018-04-07T17:09:07.043Z,93888.29
2018-04-07T17:11:34.512Z,93882.39
2018-04-07T17:14:02.685Z,93889.88
2018-04-07T17:16:31.111Z,93890.41
2018-04-07T17:18:58.261Z,93899.22
2018-04-07T17:21:25.936Z,93897.36
2018-04-07T17:23:53.201Z,93895.97
2018-04-07T17:26:21.507Z,93893.02
2018-04-07T17:28:49.530Z,93900.97
2018-04-07T17:31:16.325Z,93895.11
2018-04-07T17:33:43.527Z,93894.78
2018-04-07T17:36:11.126Z,93891.98
2018-04-07T17:38:39.110Z,93906.07
2018-04-07T17:41:07.052Z,93902.89
2018-04-07T17:43:37.205Z,93908.17
2018-04-07T17:46:04.865Z,93918.97
2018-04-07T17:48:32.710Z,93915.09
2018-04-07T17:50:59.610Z,93922.41
2018-04-07T17:53:26.456Z,93924.48
2018-04-07T17:55:53.423Z,93927.09
2018-04-07T17:58:19.997Z,93932.56
2018-04-07T18:00:46.784Z,93926.64
2018-04-07T18:03:15.063Z,93937.70
2018-04-07T18:05:42.707Z,93938.84
2018-04-07T18:08:09.675Z,93936.53
2018-04-07T18:10:37.382Z,93946.17
2018-04-07T18:13:05.209Z,93951.81
2018-04-07T18:15:31.932Z,93949.85
2018-04-07T18:17:59.242Z,93950.55
2018-04-07T18:20:26.314Z,93956.67
2018-04-07T18:22:54.235Z,93958.66
2018-04-07T18:25:23.915Z,93957.63
2018-04-07T18:27:51.391Z,93956.39
2018-04-07T18:30:18.706Z,93962.06
2018-04-07T18:32:46.147Z,93960.73
2018-04-07T18:35:13.980Z,93959.28
2018-04-07T18:37:40.989Z,93961.05
2018-04-07T18:40:08.468Z,93960.89
2018-04-07T18:42:35.370Z,93958.68
2018-04-07T18:45:04.737Z,93957.27
2018-04-07T18:47:32.836Z,93966.25
2018-04-07T18:50:00.216Z,93972.88
2018-04-07T18:52:27.304Z,93972.21
2018-04-07T18:54:57.532Z,93973.80
2018-04-07T18:57:25.850Z,93969.22
2018-04-07T18:59:54.176Z,93969.41
2018-04-07T19:02:22.565Z,93971.30
2018-04-07T19:04:49.714Z,93977.00
2018-04-07T19:07:18.386Z,93982.39
2018-04-07T19:09:49.824Z,93973.75
2018-04-07T19:12:18.085Z,93980.94
2018-04-07T19:14:47.642Z,93981.95
2018-04-07T19:17:15.645Z,93987.47
2018-04-07T19:19:43.930Z,93988.32
2018-04-07T19:22:12.449Z,93984.00
2018-04-07T19:24:41.598Z,93981.22
2018-04-07T19:27:08.139Z,93977.10
2018-04-07T19:29:35.761Z,93985.21
2018-04-07T19:32:03.700Z,93985.75
2018-04-07T19:34:31.475Z,93983.88
2018-04-07T19:37:02.949Z,93984.53
2018-04-07T19:39:29.709Z,93990.16
2018-04-07T19:41:56.660Z,93995.47
2018-04-07T19:44:23.635Z,93993.52
2018-04-07T19:46:50.186Z,93990.36
2018-04-07T19:49:16.731Z,93996.84
2018-04-07T19:51:43.712Z,93990.88
2018-04-07T19:54:10.340Z,93998.80
2018-04-07T19:56:37.391Z,93999.50
2018-04-07T19:59:04.119Z,94003.53
2018-04-07T20:01:31.455Z,93998.20
2018-04-07T20:03:58.953Z,93999.88
2018-04-07T20:06:25.532Z,94002.11
2018-04-07T20:08:53.158Z,93999.48
2018-04-07T20:11:19.995Z,93998.81
2018-04-07T20:13:46.641Z,93998.88
2018-04-07T20:16:13.296Z,94009.20
2018-04-07T20:18:39.897Z,94004.17
2018-04-07T20:21:06.718Z,94007.48
2018-04-07T20:23:33.526Z,94007.16
2018-04-07T20:26:00.589Z,94014.05
2018-04-07T20:28:27.079Z,94013.00
2018-04-07T20:30:53.778Z,94018.31
2018-04-07T20:33:20.541Z,94015.80
2018-04-07T20:35:47.129Z,94019.64
2018-04-07T20:38:13.785Z,94014.86
2018-04-07T20:40:40.360Z,94015.40
2018-04-07T20:43:12.825Z,94026.50
2018-04-07T20:45:39.714Z,94020.25
2018-04-07T20:48:06.193Z,94020.30
2018-04-07T20:50:32.734Z,94011.75
2018-04-07T20:52:59.477Z,94018.72
2018-04-07T20:55:25.981Z,94027.88
2018-04-07T20:57:52.499Z,94022.64
2018-04-07T21:00:19.033Z,94011.98
2018-04-07T21:02:45.545Z,94017.34
2018-04-07T21:05:11.946Z,94013.36
2018-04-07T21:07:38.388Z,94005.91
2018-04-07T21:10:04.975Z,94003.44
2018-04-07T21:12:31.390Z,94014.69
2018-04-07T21:14:57.752Z,94018.83
2018-04-07T21:17:24.096Z,94019.91
2018-04-07T21:19:50.533Z,94013.52
2018-04-07T21:22:17.007Z,94029.76
2018-04-07T21:24:43.624Z,94028.81
2018-04-07T21:27:10.079Z,94030.84
2018-04-07T21:29:36.536Z,94034.23
2018-04-07T21:32:02.931Z,94029.88
2018-04-07T21:34:29.476Z,94029.59
2018-04-07T21:36:56.391Z,94021.22
2018-04-07T21:39:22.818Z,94022.34
2018-04-07T21:41:49.386Z,94020.64
2018-04-07T21:44:16.713Z,94024.51
2018-04-07T21:46:43.098Z,94032.39
2018-04-07T21:49:09.457Z,94027.44
2018-04-07T21:51:35.969Z,94035.30
2018-04-07T21:54:02.399Z,94032.63
2018-04-07T21:56:28.864Z,94032.80
2018-04-07T21:58:55.341Z,94033.42
2018-04-07T22:01:21.799Z,94030.55
2018-04-07T22:03:48.239Z,94035.92
2018-04-07T22:06:14.975Z,94033.73
2018-04-07T22:08:41.824Z,94032.12
2018-04-07T22:11:08.816Z,94023.14
2018-04-07T22:13:35.267Z,94027.26
2018-04-07T22:16:01.891Z,94034.09
2018-04-07T22:18:28.537Z,94030.43
2018-04-07T22:20:55.018Z,94027.30
2018-04-07T22:23:21.453Z,94032.87
2018-04-07T22:25:48.040Z,94039.52
2018-04-07T22:28:14.469Z,94034.95
2018-04-07T22:30:40.884Z,94034.28
2018-04-07T22:33:07.362Z,94032.75
2018-04-07T22:35:33.881Z,94027.33
2018-04-07T22:38:00.343Z,94028.18
2018-04-07T22:40:28.509Z,94030.46
2018-04-07T22:42:55.003Z,94028.30
2018-04-07T22:45:21.460Z,94029.38
2018-04-07T22:47:48.005Z,94027.48
2018-04-07T22:50:14.463Z,94021.52
2018-04-07T22:52:40.913Z,94030.19
2018-04-07T22:55:07.394Z,94030.75
2018-04-07T22:57:33.781Z,94025.17
2018-04-07T23:00:00.161Z,94017.73
2018-04-07T23:02:26.722Z,94024.13
2018-04-07T23:04:53.145Z,94023.73
2018-04-07T23:07:19.539Z,94014.99
2018-04-07T23:09:46.044Z,94015.16
2018-04-07T23:12:12.550Z,94025.37
2018-04-07T23:14:39.014Z,94021.44
2018-04-07T23:17:05.453Z,94012.06
2018-04-07T23:19:31.806Z,94020.36
2018-04-07T23:21:58.171Z,94013.33
2018-04-07T23:24:24.609Z,94018.66
2018-04-07T23:26:50.983Z,94012.33
2018-04-07T23:29:17.342Z,94012.80
2018-04-07T23:31:43.735Z,94005.85
2018-04-07T23:34:10.122Z,94013.13
2018-04-07T23:36:36.542Z,94012.30
2018-04-07T23:39:03.212Z,93998.64
2018-04-07T23:41:29.597Z,94006.51
2018-04-07T23:43:56.037Z,94008.25
2018-04-07T23:46:22.457Z,93999.92
2018-04-07T23:48:48.832Z,93994.66
2018-04-07T23:51:15.257Z,94003.16
2018-04-07T23:53:41.724Z,94003.72
2018-04-07T23:56:08.105Z,94005.45
2018-04-07T23:58:34.561Z,94006.98
